Millenium Air

Millenium Air Since 1998



 METAR AND TAF INFORMATION
METAR FOR EFRO
ADDS - METARS form results

(0623 UTC 18 April 2021)
Data provider http://aviationweather.gov/metar/data/
 
METAR text: EFRO 180620Z AUTO 21007KT CAVOK 04/M03 Q1032
Conditions at: EFRO (ROVANIEMI (CIV/M, FI) observed 0620 UTC 18 April 2021
Temperature: 4.0°C (39°F)
Dewpoint: -3.0°C (27°F) [RH = 60%]
Pressure (altimeter): 30.47 inches Hg (1032.0 mb)
Winds: from the SSW (210 degrees) at 8 MPH (7 knots; 3.6 m/s)
Visibility: 6 or more miles (10+ km)
Ceiling: ceiling and visibility are OK
Clouds: unknown
Weather: no significant weather observed at this time

METAR text: EFRO 180550Z AUTO 21006KT CAVOK 03/M03 Q1032
Conditions at: EFRO (ROVANIEMI (CIV/M, FI) observed 0550 UTC 18 April 2021
Temperature: 3.0°C (37°F)
Dewpoint: -3.0°C (27°F) [RH = 65%]
Pressure (altimeter): 30.47 inches Hg (1032.0 mb)
Winds: from the SSW (210 degrees) at 7 MPH (6 knots; 3.1 m/s)
Visibility: 6 or more miles (10+ km)
Ceiling: ceiling and visibility are OK
Clouds: unknown
Weather: no significant weather observed at this time

Forecast for: EFRO (ROVANIEMI (CIV/M, FI)
Text: TAF EFRO 180526Z 1806/1906 20006KT CAVOK
Forecast period: 0600 UTC 18 April 2021 to 0600 UTC 19 April 2021
Forecast type: FROM: standard forecast or significant change
Winds: from the SSW (200 degrees) at 7 MPH (6 knots; 3.1 m/s)
Visibility: 6 or more miles (10+ km)
Ceiling: unknown
Clouds: missing
Weather: NSW  (no significant weather)

 AIRPORT MAP

 RUNWAY INFORMATION
Runway 03 Runway length 9849 ft Runway width 197 ft
Runway elevation 633 ft Runway displaced threshold 0 ft Runway heading 37
Runway 21 Runway length 9849 ft Runway width 197 ft
Runway elevation 609 ft Runway displaced threshold 0 ft Runway heading 217

 AIRPORT FREQUENCIES
Type APP Name APP Frequency 125.8 MHZ
Type ATIS Name ATIS Frequency 117.7 MHZ
Type GND Name GND Frequency 118.525 MHZ
Type PMSV Name PMSV METRO Frequency 125.1 MHZ
Type TWR Name TWR Frequency 118.7 MHZ

 AIRPORT NEAR NAVIGATION AIDS
Type NDB Name Papa-Alfa Frequency 377 KHZ
Type VOR-DME Name Rovani Frequency 117700 KHZ
Type NDB Name Toramo Frequency 416 KHZ